Pelham, NH

7:51 AM EDT on September 19, 2014 (GMT -0400)
Independence Dr | Change Station
CLOSE
Current Station
Personal Weather Station
Location: Pelham, NH
Elevation: 180 ft
Nearby Weather Stations

Elev 180 ft 42.74 °N, 71.34 °W | Updated 5 seconds ago

Clear
Clear
41.8 °F
Feels Like 42 °F
N
0.0
Wind Variable Wind from SW
Gusts 2.0 mph

Today
High -- | Low -- °F
--% Chance of Precip.
Yesterday
High -- | Low -- °F
Precip. -- in
6:29 AM 6:48 PM
Waning Crescent, 19% visible
Pressure 31.09 in
Visibility 10.0 miles
Clouds Clear
Windchill 42 °F
Dew Point 39 °F
Humidity 90%
Rainfall 0.00 in
Snow Depth Not available.
UV 0.0 out of 12
Pollen 3.40 out of 12
Ozone Good
Flu Activity Not available.
METAR KASH 191051Z 00000KT 10SM CLR 03/02 A3034 RMK AO2 T00330022 SLP527 $

More Conditions Fewer Conditions

Pressure 31.09 in
Visibility 10.0 miles
Clouds Clear
Windchill 42 °F
Dew Point 39 °F
Humidity 90%
Rainfall 0.00 in
Snow Depth Not available.
UV 0.0 out of 12
Pollen 3.40 out of 12
Ozone Good
Flu Activity Not available.
METAR KASH 191051Z 00000KT 10SM CLR 03/02 A3034 RMK AO2 T00330022 SLP527 $

More Conditions Fewer Conditions

10-Day Weather Forecast

Almanac

Astronomy

Sep. 19, 2014 Rise Set
Actual Time 6:29 AM EDT 6:48 PM EDT
Civil Twilight 6:01 AM EDT 7:16 PM EDT
Nautical Twilight 5:27 AM EDT 7:49 PM EDT
Astronomical Twilight 4:53 AM EDT 8:23 PM EDT
Moon 2:07 AM EDT 4:19 PM EDT
Length of Visible Light 13h 15m
Length of Day
12h 18m
Tomorrow will be 2m 52s shorter.
Waning Crescent, 19% of the Moon is Illuminated
Today
Waning Crescent
Sep 24
New
Oct 1
First Quarter
Oct 8
Full
Oct 15
Last Quarter

Today's Extremes

State Highs State Lows

Community

WunderPhotos

Upload Photos

1,754,597 photos uploaded!

Nearby

Air Quality

  Air Quality AQ Index Pollutant
Yesterday Good
OZONE
Current Good
OZONE
Friday Good
PM2.5
Friday Good
OZONE

Snow Depth

Station Depth Elevation
No new snow has been reported.

Earthquake Activity

City Distance Mag. Time & Date
No recent earthquake activity has been reported nearby.
Minimum magnitude displayed is 2.5.

Coastal Water Temperatures

Place Temperature
Boston, MA 63.0 °F
Fall River, MA 71.1 °F

Nearby Weather Stations